sensor_id;sensor_type;location;lat;lon;timestamp;temperature;humidity
26326;DHT22;14032;52.510;7.342;2023-06-14T00:01:50;18.30;80.80
26326;DHT22;14032;52.510;7.342;2023-06-14T00:04:16;18.30;80.80
26326;DHT22;14032;52.510;7.342;2023-06-14T00:06:42;18.30;80.90
26326;DHT22;14032;52.510;7.342;2023-06-14T00:09:11;18.30;81.10
26326;DHT22;14032;52.510;7.342;2023-06-14T00:11:39;18.20;81.40
26326;DHT22;14032;52.510;7.342;2023-06-14T00:14:05;18.20;81.40
26326;DHT22;14032;52.510;7.342;2023-06-14T00:16:30;18.10;81.50
26326;DHT22;14032;52.510;7.342;2023-06-14T00:18:58;18.10;81.90
26326;DHT22;14032;52.510;7.342;2023-06-14T00:21:23;18.10;81.90
26326;DHT22;14032;52.510;7.342;2023-06-14T00:23:49;18.00;81.90
26326;DHT22;14032;52.510;7.342;2023-06-14T00:26:15;18.00;82.20
26326;DHT22;14032;52.510;7.342;2023-06-14T00:28:40;18.00;82.40
26326;DHT22;14032;52.510;7.342;2023-06-14T00:31:06;18.00;82.50
26326;DHT22;14032;52.510;7.342;2023-06-14T00:33:32;17.90;82.60
26326;DHT22;14032;52.510;7.342;2023-06-14T00:35:57;17.90;82.80
26326;DHT22;14032;52.510;7.342;2023-06-14T00:38:23;17.80;83.00
26326;DHT22;14032;52.510;7.342;2023-06-14T00:40:48;17.80;83.40
26326;DHT22;14032;52.510;7.342;2023-06-14T00:43:14;17.70;83.50
26326;DHT22;14032;52.510;7.342;2023-06-14T00:45:39;17.70;83.60
26326;DHT22;14032;52.510;7.342;2023-06-14T00:48:05;17.70;83.80
26326;DHT22;14032;52.510;7.342;2023-06-14T00:50:32;17.60;84.00
26326;DHT22;14032;52.510;7.342;2023-06-14T00:53:00;17.60;84.20
26326;DHT22;14032;52.510;7.342;2023-06-14T00:55:27;17.50;84.40
26326;DHT22;14032;52.510;7.342;2023-06-14T00:57:54;17.50;84.50
26326;DHT22;14032;52.510;7.342;2023-06-14T01:00:20;17.50;84.60
26326;DHT22;14032;52.510;7.342;2023-06-14T01:02:45;17.40;84.90
26326;DHT22;14032;52.510;7.342;2023-06-14T01:05:12;17.40;85.10
26326;DHT22;14032;52.510;7.342;2023-06-14T01:08:02;17.40;85.20
26326;DHT22;14032;52.510;7.342;2023-06-14T01:10:47;17.30;85.40
26326;DHT22;14032;52.510;7.342;2023-06-14T01:13:32;17.30;85.50
26326;DHT22;14032;52.510;7.342;2023-06-14T01:15:59;17.30;85.80
26326;DHT22;14032;52.510;7.342;2023-06-14T01:18:24;17.20;86.10
26326;DHT22;14032;52.510;7.342;2023-06-14T01:20:51;17.20;86.20
26326;DHT22;14032;52.510;7.342;2023-06-14T01:23:21;17.20;86.20
26326;DHT22;14032;52.510;7.342;2023-06-14T01:25:50;17.30;86.20
26326;DHT22;14032;52.510;7.342;2023-06-14T01:28:20;17.20;86.40
26326;DHT22;14032;52.510;7.342;2023-06-14T01:30:52;17.10;86.40
26326;DHT22;14032;52.510;7.342;2023-06-14T01:33:24;17.10;86.70
26326;DHT22;14032;52.510;7.342;2023-06-14T01:35:52;17.10;86.80
26326;DHT22;14032;52.510;7.342;2023-06-14T01:38:20;17.00;86.90
26326;DHT22;14032;52.510;7.342;2023-06-14T01:40:47;17.00;87.30
26326;DHT22;14032;52.510;7.342;2023-06-14T01:43:15;17.00;87.30
26326;DHT22;14032;52.510;7.342;2023-06-14T01:45:45;16.90;87.30
26326;DHT22;14032;52.510;7.342;2023-06-14T01:48:12;16.90;87.40
26326;DHT22;14032;52.510;7.342;2023-06-14T01:50:38;16.90;87.70
26326;DHT22;14032;52.510;7.342;2023-06-14T01:53:09;16.90;88.50
26326;DHT22;14032;52.510;7.342;2023-06-14T01:55:34;16.80;88.10
26326;DHT22;14032;52.510;7.342;2023-06-14T01:58:03;16.80;88.40
26326;DHT22;14032;52.510;7.342;2023-06-14T02:00:29;16.70;88.50
26326;DHT22;14032;52.510;7.342;2023-06-14T02:02:55;16.70;88.80
26326;DHT22;14032;52.510;7.342;2023-06-14T02:05:21;16.60;89.00
26326;DHT22;14032;52.510;7.342;2023-06-14T02:07:46;16.60;89.20
26326;DHT22;14032;52.510;7.342;2023-06-14T02:10:12;16.60;89.30
26326;DHT22;14032;52.510;7.342;2023-06-14T02:12:38;16.50;89.60
26326;DHT22;14032;52.510;7.342;2023-06-14T02:15:04;16.50;89.80
26326;DHT22;14032;52.510;7.342;2023-06-14T02:17:29;16.50;90.00
26326;DHT22;14032;52.510;7.342;2023-06-14T02:19:55;16.40;90.00
26326;DHT22;14032;52.510;7.342;2023-06-14T02:22:22;16.40;90.20
26326;DHT22;14032;52.510;7.342;2023-06-14T02:24:48;16.40;90.30
26326;DHT22;14032;52.510;7.342;2023-06-14T02:27:14;16.30;90.30
26326;DHT22;14032;52.510;7.342;2023-06-14T02:29:39;16.30;90.40
26326;DHT22;14032;52.510;7.342;2023-06-14T02:32:05;16.20;90.50
26326;DHT22;14032;52.510;7.342;2023-06-14T02:34:33;16.20;90.50
26326;DHT22;14032;52.510;7.342;2023-06-14T02:36:59;16.30;90.50
26326;DHT22;14032;52.510;7.342;2023-06-14T02:39:24;16.20;90.70
26326;DHT22;14032;52.510;7.342;2023-06-14T02:41:50;16.20;90.80
26326;DHT22;14032;52.510;7.342;2023-06-14T02:44:18;16.10;90.90
26326;DHT22;14032;52.510;7.342;2023-06-14T02:46:43;16.00;91.00
26326;DHT22;14032;52.510;7.342;2023-06-14T02:49:10;16.00;91.10
26326;DHT22;14032;52.510;7.342;2023-06-14T02:51:35;16.00;91.20
26326;DHT22;14032;52.510;7.342;2023-06-14T02:54:01;15.90;91.40
26326;DHT22;14032;52.510;7.342;2023-06-14T02:56:27;15.90;91.40
26326;DHT22;14032;52.510;7.342;2023-06-14T02:58:53;15.90;91.60
26326;DHT22;14032;52.510;7.342;2023-06-14T03:01:18;15.80;91.60
26326;DHT22;14032;52.510;7.342;2023-06-14T03:03:44;15.80;91.70
26326;DHT22;14032;52.510;7.342;2023-06-14T03:06:10;15.80;91.90
26326;DHT22;14032;52.510;7.342;2023-06-14T03:08:39;15.80;91.90
26326;DHT22;14032;52.510;7.342;2023-06-14T03:11:07;15.70;92.00
26326;DHT22;14032;52.510;7.342;2023-06-14T03:13:34;15.70;92.20
26326;DHT22;14032;52.510;7.342;2023-06-14T03:16:00;15.70;92.20
26326;DHT22;14032;52.510;7.342;2023-06-14T03:18:31;15.60;92.30
26326;DHT22;14032;52.510;7.342;2023-06-14T03:21:01;15.60;92.40
26326;DHT22;14032;52.510;7.342;2023-06-14T03:23:27;15.60;92.50
26326;DHT22;14032;52.510;7.342;2023-06-14T03:25:52;15.50;92.60
26326;DHT22;14032;52.510;7.342;2023-06-14T03:28:18;15.50;92.70
26326;DHT22;14032;52.510;7.342;2023-06-14T03:30:43;15.50;92.80
26326;DHT22;14032;52.510;7.342;2023-06-14T03:33:09;15.50;92.90
26326;DHT22;14032;52.510;7.342;2023-06-14T03:35:34;15.50;93.00
26326;DHT22;14032;52.510;7.342;2023-06-14T03:38:00;15.50;93.10
26326;DHT22;14032;52.510;7.342;2023-06-14T03:40:26;15.40;93.20
26326;DHT22;14032;52.510;7.342;2023-06-14T03:42:53;15.50;93.30
26326;DHT22;14032;52.510;7.342;2023-06-14T03:45:19;15.40;93.40
26326;DHT22;14032;52.510;7.342;2023-06-14T03:47:45;15.30;93.50
26326;DHT22;14032;52.510;7.342;2023-06-14T03:50:10;15.40;93.50
26326;DHT22;14032;52.510;7.342;2023-06-14T03:52:36;15.30;93.60
26326;DHT22;14032;52.510;7.342;2023-06-14T03:55:02;15.40;93.70
26326;DHT22;14032;52.510;7.342;2023-06-14T03:57:29;15.40;93.70
26326;DHT22;14032;52.510;7.342;2023-06-14T03:59:54;15.40;93.80
26326;DHT22;14032;52.510;7.342;2023-06-14T04:02:20;15.40;93.90
26326;DHT22;14032;52.510;7.342;2023-06-14T04:04:46;15.40;94.00
26326;DHT22;14032;52.510;7.342;2023-06-14T04:07:12;15.40;94.00
26326;DHT22;14032;52.510;7.342;2023-06-14T04:09:38;15.40;94.00
26326;DHT22;14032;52.510;7.342;2023-06-14T04:12:05;15.40;94.10
26326;DHT22;14032;52.510;7.342;2023-06-14T04:14:31;15.40;94.30
26326;DHT22;14032;52.510;7.342;2023-06-14T04:16:58;15.40;94.30
26326;DHT22;14032;52.510;7.342;2023-06-14T04:19:24;15.40;94.30
26326;DHT22;14032;52.510;7.342;2023-06-14T04:21:49;15.40;94.40
26326;DHT22;14032;52.510;7.342;2023-06-14T04:24:15;15.40;94.40
26326;DHT22;14032;52.510;7.342;2023-06-14T04:26:42;15.50;94.50
26326;DHT22;14032;52.510;7.342;2023-06-14T04:29:10;15.50;94.50
26326;DHT22;14032;52.510;7.342;2023-06-14T04:31:40;15.50;94.40
26326;DHT22;14032;52.510;7.342;2023-06-14T04:34:05;15.60;94.50
26326;DHT22;14032;52.510;7.342;2023-06-14T04:36:34;15.70;94.40
26326;DHT22;14032;52.510;7.342;2023-06-14T04:39:05;15.80;94.50
26326;DHT22;14032;52.510;7.342;2023-06-14T04:41:31;15.80;94.50
26326;DHT22;14032;52.510;7.342;2023-06-14T04:44:01;15.80;94.40
26326;DHT22;14032;52.510;7.342;2023-06-14T04:46:28;15.90;94.40
26326;DHT22;14032;52.510;7.342;2023-06-14T04:48:54;15.90;94.40
26326;DHT22;14032;52.510;7.342;2023-06-14T04:51:20;16.00;94.40
26326;DHT22;14032;52.510;7.342;2023-06-14T04:53:47;16.00;94.40
26326;DHT22;14032;52.510;7.342;2023-06-14T04:56:15;16.10;94.30
26326;DHT22;14032;52.510;7.342;2023-06-14T04:58:42;16.20;94.20
26326;DHT22;14032;52.510;7.342;2023-06-14T05:01:09;16.30;94.00
26326;DHT22;14032;52.510;7.342;2023-06-14T05:03:35;16.40;93.90
26326;DHT22;14032;52.510;7.342;2023-06-14T05:06:00;16.50;93.70
26326;DHT22;14032;52.510;7.342;2023-06-14T05:08:26;16.60;93.60
26326;DHT22;14032;52.510;7.342;2023-06-14T05:10:52;16.80;93.50
26326;DHT22;14032;52.510;7.342;2023-06-14T05:13:18;16.90;93.20
26326;DHT22;14032;52.510;7.342;2023-06-14T05:15:44;17.10;93.00
26326;DHT22;14032;52.510;7.342;2023-06-14T05:18:10;17.20;92.60
26326;DHT22;14032;52.510;7.342;2023-06-14T05:20:36;17.30;92.70
26326;DHT22;14032;52.510;7.342;2023-06-14T05:23:02;17.50;92.30
26326;DHT22;14032;52.510;7.342;2023-06-14T05:25:28;17.60;92.10
26326;DHT22;14032;52.510;7.342;2023-06-14T05:27:54;17.80;91.90
26326;DHT22;14032;52.510;7.342;2023-06-14T05:30:20;18.00;91.60
26326;DHT22;14032;52.510;7.342;2023-06-14T05:32:45;18.20;91.50
26326;DHT22;14032;52.510;7.342;2023-06-14T05:35:11;18.30;91.20
26326;DHT22;14032;52.510;7.342;2023-06-14T05:37:37;18.40;91.20
26326;DHT22;14032;52.510;7.342;2023-06-14T05:40:03;18.60;90.60
26326;DHT22;14032;52.510;7.342;2023-06-14T05:42:33;18.70;90.50
26326;DHT22;14032;52.510;7.342;2023-06-14T05:44:58;18.90;90.40
26326;DHT22;14032;52.510;7.342;2023-06-14T05:47:24;19.00;90.10
26326;DHT22;14032;52.510;7.342;2023-06-14T05:49:49;19.10;90.00
26326;DHT22;14032;52.510;7.342;2023-06-14T05:52:15;19.30;89.10
26326;DHT22;14032;52.510;7.342;2023-06-14T05:54:40;19.30;89.20
26326;DHT22;14032;52.510;7.342;2023-06-14T05:57:06;19.50;88.90
26326;DHT22;14032;52.510;7.342;2023-06-14T05:59:32;19.60;88.70
26326;DHT22;14032;52.510;7.342;2023-06-14T06:01:58;19.70;87.70
26326;DHT22;14032;52.510;7.342;2023-06-14T06:04:24;19.90;88.10
26326;DHT22;14032;52.510;7.342;2023-06-14T06:06:49;20.00;86.50
26326;DHT22;14032;52.510;7.342;2023-06-14T06:09:15;20.10;86.30
26326;DHT22;14032;52.510;7.342;2023-06-14T06:11:41;20.20;85.70
26326;DHT22;14032;52.510;7.342;2023-06-14T06:14:06;20.40;85.00
26326;DHT22;14032;52.510;7.342;2023-06-14T06:16:32;20.50;85.30
26326;DHT22;14032;52.510;7.342;2023-06-14T06:18:58;20.60;86.20
26326;DHT22;14032;52.510;7.342;2023-06-14T06:21:24;20.80;86.00
26326;DHT22;14032;52.510;7.342;2023-06-14T06:23:49;21.00;85.70
26326;DHT22;14032;52.510;7.342;2023-06-14T06:26:15;21.10;85.10
26326;DHT22;14032;52.510;7.342;2023-06-14T06:28:41;21.20;84.10
26326;DHT22;14032;52.510;7.342;2023-06-14T06:31:06;21.30;83.20
26326;DHT22;14032;52.510;7.342;2023-06-14T06:33:32;21.30;82.60
26326;DHT22;14032;52.510;7.342;2023-06-14T06:35:57;21.30;83.30
26326;DHT22;14032;52.510;7.342;2023-06-14T06:38:23;21.40;81.80
26326;DHT22;14032;52.510;7.342;2023-06-14T06:40:48;21.40;81.30
26326;DHT22;14032;52.510;7.342;2023-06-14T06:43:14;21.40;80.40
26326;DHT22;14032;52.510;7.342;2023-06-14T06:45:42;21.40;79.90
26326;DHT22;14032;52.510;7.342;2023-06-14T06:48:07;21.50;80.30
26326;DHT22;14032;52.510;7.342;2023-06-14T06:50:35;21.50;78.60
26326;DHT22;14032;52.510;7.342;2023-06-14T06:53:01;21.50;78.30
26326;DHT22;14032;52.510;7.342;2023-06-14T06:55:26;21.40;78.10
26326;DHT22;14032;52.510;7.342;2023-06-14T06:57:52;21.40;77.80
26326;DHT22;14032;52.510;7.342;2023-06-14T07:00:19;21.50;78.00
26326;DHT22;14032;52.510;7.342;2023-06-14T07:02:45;21.60;77.80
26326;DHT22;14032;52.510;7.342;2023-06-14T07:05:11;21.70;77.60
26326;DHT22;14032;52.510;7.342;2023-06-14T07:07:37;21.70;75.60
26326;DHT22;14032;52.510;7.342;2023-06-14T07:10:04;21.80;75.80
26326;DHT22;14032;52.510;7.342;2023-06-14T07:12:31;21.80;75.30
26326;DHT22;14032;52.510;7.342;2023-06-14T07:14:59;21.90;75.30
26326;DHT22;14032;52.510;7.342;2023-06-14T07:17:25;22.10;74.90
26326;DHT22;14032;52.510;7.342;2023-06-14T07:19:50;22.20;74.70
26326;DHT22;14032;52.510;7.342;2023-06-14T07:22:16;22.20;74.00
26326;DHT22;14032;52.510;7.342;2023-06-14T07:24:43;22.40;74.70
26326;DHT22;14032;52.510;7.342;2023-06-14T07:27:08;22.50;74.00
26326;DHT22;14032;52.510;7.342;2023-06-14T07:29:34;22.60;73.90
26326;DHT22;14032;52.510;7.342;2023-06-14T07:32:00;22.60;73.10
26326;DHT22;14032;52.510;7.342;2023-06-14T07:34:25;22.70;73.70
26326;DHT22;14032;52.510;7.342;2023-06-14T07:36:52;22.80;72.10
26326;DHT22;14032;52.510;7.342;2023-06-14T07:39:19;22.80;72.40
26326;DHT22;14032;52.510;7.342;2023-06-14T07:41:45;22.70;73.00
26326;DHT22;14032;52.510;7.342;2023-06-14T07:44:10;22.80;72.40
26326;DHT22;14032;52.510;7.342;2023-06-14T07:46:37;22.90;72.50
26326;DHT22;14032;52.510;7.342;2023-06-14T07:49:03;23.00;72.50
26326;DHT22;14032;52.510;7.342;2023-06-14T07:51:29;23.20;72.60
26326;DHT22;14032;52.510;7.342;2023-06-14T07:53:54;23.30;71.70
26326;DHT22;14032;52.510;7.342;2023-06-14T07:56:20;23.40;71.80
26326;DHT22;14032;52.510;7.342;2023-06-14T07:58:46;23.50;71.30
26326;DHT22;14032;52.510;7.342;2023-06-14T08:01:12;23.60;71.30
26326;DHT22;14032;52.510;7.342;2023-06-14T08:03:37;23.70;71.60
26326;DHT22;14032;52.510;7.342;2023-06-14T08:06:03;23.80;71.60
26326;DHT22;14032;52.510;7.342;2023-06-14T08:08:29;23.90;71.30
26326;DHT22;14032;52.510;7.342;2023-06-14T08:10:55;23.80;70.70
26326;DHT22;14032;52.510;7.342;2023-06-14T08:13:21;23.90;71.00
26326;DHT22;14032;52.510;7.342;2023-06-14T08:15:47;24.00;70.10
26326;DHT22;14032;52.510;7.342;2023-06-14T08:18:12;24.00;69.40
26326;DHT22;14032;52.510;7.342;2023-06-14T08:20:38;24.00;69.50
26326;DHT22;14032;52.510;7.342;2023-06-14T08:23:03;23.80;69.00
26326;DHT22;14032;52.510;7.342;2023-06-14T08:25:30;23.70;69.30
26326;DHT22;14032;52.510;7.342;2023-06-14T08:27:56;23.50;69.20
26326;DHT22;14032;52.510;7.342;2023-06-14T08:30:22;23.60;69.70
26326;DHT22;14032;52.510;7.342;2023-06-14T08:32:47;23.50;69.80
26326;DHT22;14032;52.510;7.342;2023-06-14T08:35:13;23.40;70.00
26326;DHT22;14032;52.510;7.342;2023-06-14T08:37:40;23.50;68.70
26326;DHT22;14032;52.510;7.342;2023-06-14T08:40:22;23.60;69.00
26326;DHT22;14032;52.510;7.342;2023-06-14T08:42:51;23.70;68.80
26326;DHT22;14032;52.510;7.342;2023-06-14T08:45:18;23.80;67.30
26326;DHT22;14032;52.510;7.342;2023-06-14T08:47:44;23.70;67.60
26326;DHT22;14032;52.510;7.342;2023-06-14T08:50:11;23.70;66.50
26326;DHT22;14032;52.510;7.342;2023-06-14T08:52:38;23.70;66.10
26326;DHT22;14032;52.510;7.342;2023-06-14T08:55:11;23.60;66.50
26326;DHT22;14032;52.510;7.342;2023-06-14T08:57:38;23.50;67.30
26326;DHT22;14032;52.510;7.342;2023-06-14T09:00:05;23.70;68.10
26326;DHT22;14032;52.510;7.342;2023-06-14T09:02:41;23.50;67.70
26326;DHT22;14032;52.510;7.342;2023-06-14T09:05:10;23.60;67.30
26326;DHT22;14032;52.510;7.342;2023-06-14T09:07:37;23.70;66.50
26326;DHT22;14032;52.510;7.342;2023-06-14T09:10:08;23.70;67.00
26326;DHT22;14032;52.510;7.342;2023-06-14T09:12:34;23.70;67.10
26326;DHT22;14032;52.510;7.342;2023-06-14T09:14:59;23.80;66.90
26326;DHT22;14032;52.510;7.342;2023-06-14T09:17:25;23.80;66.80
26326;DHT22;14032;52.510;7.342;2023-06-14T09:19:51;23.90;67.20
26326;DHT22;14032;52.510;7.342;2023-06-14T09:22:17;24.00;67.30
26326;DHT22;14032;52.510;7.342;2023-06-14T09:24:42;24.10;67.10
26326;DHT22;14032;52.510;7.342;2023-06-14T09:27:08;24.00;66.50
26326;DHT22;14032;52.510;7.342;2023-06-14T09:29:33;24.10;67.10
26326;DHT22;14032;52.510;7.342;2023-06-14T09:32:00;24.30;67.80
26326;DHT22;14032;52.510;7.342;2023-06-14T09:34:26;24.40;67.40
26326;DHT22;14032;52.510;7.342;2023-06-14T09:36:51;24.40;67.10
26326;DHT22;14032;52.510;7.342;2023-06-14T09:39:17;24.40;67.20
26326;DHT22;14032;52.510;7.342;2023-06-14T09:41:44;24.40;66.90
26326;DHT22;14032;52.510;7.342;2023-06-14T09:44:10;24.50;66.80
26326;DHT22;14032;52.510;7.342;2023-06-14T09:46:37;24.50;66.50
26326;DHT22;14032;52.510;7.342;2023-06-14T09:49:06;24.50;66.20
26326;DHT22;14032;52.510;7.342;2023-06-14T09:51:32;24.50;66.60
26326;DHT22;14032;52.510;7.342;2023-06-14T09:54:00;24.40;66.10
26326;DHT22;14032;52.510;7.342;2023-06-14T09:56:32;24.20;66.50
26326;DHT22;14032;52.510;7.342;2023-06-14T09:58:59;24.20;67.40
26326;DHT22;14032;52.510;7.342;2023-06-14T10:01:26;24.20;67.70
26326;DHT22;14032;52.510;7.342;2023-06-14T10:04:07;24.50;67.30
26326;DHT22;14032;52.510;7.342;2023-06-14T10:06:39;24.60;67.00
26326;DHT22;14032;52.510;7.342;2023-06-14T10:09:09;24.70;66.50
26326;DHT22;14032;52.510;7.342;2023-06-14T10:11:35;24.70;66.50
26326;DHT22;14032;52.510;7.342;2023-06-14T10:14:02;24.80;66.10
26326;DHT22;14032;52.510;7.342;2023-06-14T10:16:50;24.80;65.90
26326;DHT22;14032;52.510;7.342;2023-06-14T10:19:25;24.80;66.40
26326;DHT22;14032;52.510;7.342;2023-06-14T10:22:23;24.70;66.80
26326;DHT22;14032;52.510;7.342;2023-06-14T10:24:51;24.80;66.40
26326;DHT22;14032;52.510;7.342;2023-06-14T10:27:17;24.90;66.80
26326;DHT22;14032;52.510;7.342;2023-06-14T10:32:18;25.00;64.60
26326;DHT22;14032;52.510;7.342;2023-06-14T10:34:44;24.90;63.90
26326;DHT22;14032;52.510;7.342;2023-06-14T10:37:14;24.80;64.20
26326;DHT22;14032;52.510;7.342;2023-06-14T10:39:44;24.70;64.60
26326;DHT22;14032;52.510;7.342;2023-06-14T10:42:11;24.60;65.00
26326;DHT22;14032;52.510;7.342;2023-06-14T10:44:38;24.70;65.10
26326;DHT22;14032;52.510;7.342;2023-06-14T10:47:07;24.80;64.50
26326;DHT22;14032;52.510;7.342;2023-06-14T10:49:49;24.80;62.60
26326;DHT22;14032;52.510;7.342;2023-06-14T10:52:16;24.80;63.50
26326;DHT22;14032;52.510;7.342;2023-06-14T10:55:07;24.80;63.50
26326;DHT22;14032;52.510;7.342;2023-06-14T10:57:44;24.90;63.50
26326;DHT22;14032;52.510;7.342;2023-06-14T11:00:21;25.00;64.00
26326;DHT22;14032;52.510;7.342;2023-06-14T11:05:29;24.90;61.90
26326;DHT22;14032;52.510;7.342;2023-06-14T11:10:44;25.00;61.90
26326;DHT22;14032;52.510;7.342;2023-06-14T11:13:16;24.90;62.30
26326;DHT22;14032;52.510;7.342;2023-06-14T11:15:44;24.90;62.90
26326;DHT22;14032;52.510;7.342;2023-06-14T11:18:12;25.00;63.70
26326;DHT22;14032;52.510;7.342;2023-06-14T11:20:41;25.00;63.50
26326;DHT22;14032;52.510;7.342;2023-06-14T11:23:08;25.00;63.20
26326;DHT22;14032;52.510;7.342;2023-06-14T11:25:33;24.90;64.10
26326;DHT22;14032;52.510;7.342;2023-06-14T11:27:59;25.10;63.80
26326;DHT22;14032;52.510;7.342;2023-06-14T11:30:25;25.20;63.60
26326;DHT22;14032;52.510;7.342;2023-06-14T11:32:53;25.30;63.80
26326;DHT22;14032;52.510;7.342;2023-06-14T11:35:21;25.40;63.30
26326;DHT22;14032;52.510;7.342;2023-06-14T11:37:48;25.50;62.40
26326;DHT22;14032;52.510;7.342;2023-06-14T11:40:15;25.50;61.40
26326;DHT22;14032;52.510;7.342;2023-06-14T11:42:41;25.50;61.90
26326;DHT22;14032;52.510;7.342;2023-06-14T11:45:11;25.30;63.00
26326;DHT22;14032;52.510;7.342;2023-06-14T11:47:38;25.50;63.60
26326;DHT22;14032;52.510;7.342;2023-06-14T11:50:06;25.40;62.70
26326;DHT22;14032;52.510;7.342;2023-06-14T11:52:32;25.30;62.70
26326;DHT22;14032;52.510;7.342;2023-06-14T11:54:58;25.10;62.70
26326;DHT22;14032;52.510;7.342;2023-06-14T11:57:24;25.00;62.00
26326;DHT22;14032;52.510;7.342;2023-06-14T11:59:50;25.10;63.00
26326;DHT22;14032;52.510;7.342;2023-06-14T12:02:16;25.10;63.00
26326;DHT22;14032;52.510;7.342;2023-06-14T12:04:43;25.10;63.20
26326;DHT22;14032;52.510;7.342;2023-06-14T12:07:09;25.30;63.40
26326;DHT22;14032;52.510;7.342;2023-06-14T12:09:37;25.30;62.50
26326;DHT22;14032;52.510;7.342;2023-06-14T12:12:03;25.10;62.30
26326;DHT22;14032;52.510;7.342;2023-06-14T12:14:32;25.10;62.90
26326;DHT22;14032;52.510;7.342;2023-06-14T12:17:07;25.00;63.50
26326;DHT22;14032;52.510;7.342;2023-06-14T12:19:33;24.80;64.40
26326;DHT22;14032;52.510;7.342;2023-06-14T12:22:03;24.60;64.70
26326;DHT22;14032;52.510;7.342;2023-06-14T12:24:30;24.70;64.60
26326;DHT22;14032;52.510;7.342;2023-06-14T12:26:58;24.70;64.50
26326;DHT22;14032;52.510;7.342;2023-06-14T12:29:29;24.60;64.60
26326;DHT22;14032;52.510;7.342;2023-06-14T12:31:55;24.60;65.20
26326;DHT22;14032;52.510;7.342;2023-06-14T12:34:23;24.60;64.80
26326;DHT22;14032;52.510;7.342;2023-06-14T12:36:55;24.70;65.30
26326;DHT22;14032;52.510;7.342;2023-06-14T12:39:21;24.70;63.80
26326;DHT22;14032;52.510;7.342;2023-06-14T12:41:47;24.60;63.80
26326;DHT22;14032;52.510;7.342;2023-06-14T12:44:14;24.60;64.70
26326;DHT22;14032;52.510;7.342;2023-06-14T12:46:41;24.60;65.20
26326;DHT22;14032;52.510;7.342;2023-06-14T12:49:10;24.60;65.40
26326;DHT22;14032;52.510;7.342;2023-06-14T12:51:37;24.60;65.90
26326;DHT22;14032;52.510;7.342;2023-06-14T12:54:03;24.60;65.50
26326;DHT22;14032;52.510;7.342;2023-06-14T12:56:29;24.60;64.80
26326;DHT22;14032;52.510;7.342;2023-06-14T12:58:54;24.60;64.60
26326;DHT22;14032;52.510;7.342;2023-06-14T13:01:20;24.60;64.70
26326;DHT22;14032;52.510;7.342;2023-06-14T13:03:46;24.60;64.60
26326;DHT22;14032;52.510;7.342;2023-06-14T13:06:13;24.50;64.40
26326;DHT22;14032;52.510;7.342;2023-06-14T13:08:38;24.50;65.10
26326;DHT22;14032;52.510;7.342;2023-06-14T13:11:04;24.40;65.00
26326;DHT22;14032;52.510;7.342;2023-06-14T13:13:29;24.40;65.60
26326;DHT22;14032;52.510;7.342;2023-06-14T13:15:56;24.30;66.10
26326;DHT22;14032;52.510;7.342;2023-06-14T13:18:22;24.30;65.30
26326;DHT22;14032;52.510;7.342;2023-06-14T13:20:47;24.30;66.20
26326;DHT22;14032;52.510;7.342;2023-06-14T13:23:14;24.30;64.40
26326;DHT22;14032;52.510;7.342;2023-06-14T13:25:40;24.30;64.30
26326;DHT22;14032;52.510;7.342;2023-06-14T13:28:06;24.20;64.20
26326;DHT22;14032;52.510;7.342;2023-06-14T13:30:32;24.20;65.00
26326;DHT22;14032;52.510;7.342;2023-06-14T13:32:58;24.20;65.80
26326;DHT22;14032;52.510;7.342;2023-06-14T13:35:24;24.30;66.10
26326;DHT22;14032;52.510;7.342;2023-06-14T13:37:50;24.30;65.50
26326;DHT22;14032;52.510;7.342;2023-06-14T13:40:16;24.30;65.40
26326;DHT22;14032;52.510;7.342;2023-06-14T13:42:42;24.30;65.80
26326;DHT22;14032;52.510;7.342;2023-06-14T13:45:08;24.30;65.90
26326;DHT22;14032;52.510;7.342;2023-06-14T13:47:34;24.30;66.50
26326;DHT22;14032;52.510;7.342;2023-06-14T13:50:00;24.50;66.50
26326;DHT22;14032;52.510;7.342;2023-06-14T13:52:25;24.50;65.70
26326;DHT22;14032;52.510;7.342;2023-06-14T13:54:51;24.50;65.60
26326;DHT22;14032;52.510;7.342;2023-06-14T13:57:18;24.60;66.20
26326;DHT22;14032;52.510;7.342;2023-06-14T13:59:44;24.50;66.80
26326;DHT22;14032;52.510;7.342;2023-06-14T14:02:10;24.50;67.50
26326;DHT22;14032;52.510;7.342;2023-06-14T14:04:37;24.50;67.20
26326;DHT22;14032;52.510;7.342;2023-06-14T14:07:04;24.60;66.60
26326;DHT22;14032;52.510;7.342;2023-06-14T14:09:30;24.70;66.40
26326;DHT22;14032;52.510;7.342;2023-06-14T14:11:56;24.60;65.80
26326;DHT22;14032;52.510;7.342;2023-06-14T14:14:21;24.60;66.60
26326;DHT22;14032;52.510;7.342;2023-06-14T14:16:49;24.60;66.40
26326;DHT22;14032;52.510;7.342;2023-06-14T14:19:17;24.50;65.40
26326;DHT22;14032;52.510;7.342;2023-06-14T14:21:44;24.50;65.50
26326;DHT22;14032;52.510;7.342;2023-06-14T14:24:10;24.30;65.70
26326;DHT22;14032;52.510;7.342;2023-06-14T14:26:36;24.30;66.60
26326;DHT22;14032;52.510;7.342;2023-06-14T14:29:01;24.30;66.60
26326;DHT22;14032;52.510;7.342;2023-06-14T14:31:28;24.30;66.50
26326;DHT22;14032;52.510;7.342;2023-06-14T14:33:53;24.30;67.20
26326;DHT22;14032;52.510;7.342;2023-06-14T14:36:19;24.30;67.60
26326;DHT22;14032;52.510;7.342;2023-06-14T14:38:45;24.40;67.60
26326;DHT22;14032;52.510;7.342;2023-06-14T14:41:12;24.40;67.50
26326;DHT22;14032;52.510;7.342;2023-06-14T14:43:38;24.30;67.60
26326;DHT22;14032;52.510;7.342;2023-06-14T14:46:03;24.30;67.00
26326;DHT22;14032;52.510;7.342;2023-06-14T14:48:29;24.30;66.50
26326;DHT22;14032;52.510;7.342;2023-06-14T14:50:57;24.30;66.50
26326;DHT22;14032;52.510;7.342;2023-06-14T14:53:23;24.30;67.10
26326;DHT22;14032;52.510;7.342;2023-06-14T14:55:51;24.30;67.20
26326;DHT22;14032;52.510;7.342;2023-06-14T14:58:18;24.40;66.90
26326;DHT22;14032;52.510;7.342;2023-06-14T15:00:47;24.40;67.30
26326;DHT22;14032;52.510;7.342;2023-06-14T15:03:14;24.30;66.50
26326;DHT22;14032;52.510;7.342;2023-06-14T15:05:40;24.40;65.80
26326;DHT22;14032;52.510;7.342;2023-06-14T15:08:06;24.30;65.70
26326;DHT22;14032;52.510;7.342;2023-06-14T15:10:40;24.30;66.40
26326;DHT22;14032;52.510;7.342;2023-06-14T15:13:07;24.30;67.10
26326;DHT22;14032;52.510;7.342;2023-06-14T15:15:36;24.30;67.10
26326;DHT22;14032;52.510;7.342;2023-06-14T15:18:02;24.30;67.20
26326;DHT22;14032;52.510;7.342;2023-06-14T15:20:28;24.30;67.20
26326;DHT22;14032;52.510;7.342;2023-06-14T15:22:54;24.30;67.20
26326;DHT22;14032;52.510;7.342;2023-06-14T15:25:28;24.20;67.50
26326;DHT22;14032;52.510;7.342;2023-06-14T15:27:54;24.30;67.10
26326;DHT22;14032;52.510;7.342;2023-06-14T15:30:23;24.30;66.60
26326;DHT22;14032;52.510;7.342;2023-06-14T15:32:49;24.30;66.60
26326;DHT22;14032;52.510;7.342;2023-06-14T15:35:17;24.30;66.90
26326;DHT22;14032;52.510;7.342;2023-06-14T15:37:47;24.30;66.50